createdAt,value
2023-09-27T00:00:37.829Z,8.82
2023-09-27T00:05:35.136Z,12.60
2023-09-27T00:10:32.016Z,15.80
2023-09-27T00:15:29.351Z,9.30
2023-09-27T00:20:26.406Z,10.85
2023-09-27T00:25:23.314Z,10.25
2023-09-27T00:30:20.552Z,12.93
2023-09-27T00:35:24.485Z,9.80
2023-09-27T00:40:24.385Z,13.45
2023-09-27T00:45:21.530Z,14.20
2023-09-27T00:50:18.636Z,11.57
2023-09-27T00:55:21.387Z,14.63
2023-09-27T01:00:19.587Z,10.95
2023-09-27T01:05:18.259Z,17.52
2023-09-27T01:10:15.825Z,17.65
2023-09-27T01:15:12.857Z,18.55
2023-09-27T01:20:13.909Z,19.48
2023-09-27T01:25:16.386Z,10.90
2023-09-27T01:30:13.228Z,14.63
2023-09-27T01:35:10.139Z,13.82
2023-09-27T01:40:10.593Z,10.75
2023-09-27T01:45:07.909Z,17.88
2023-09-27T01:50:05.065Z,9.77
2023-09-27T01:55:01.952Z,13.00
2023-09-27T01:59:58.877Z,12.07
2023-09-27T02:04:56.217Z,15.73
2023-09-27T02:09:53.040Z,15.13
2023-09-27T02:14:49.793Z,10.88
2023-09-27T02:19:46.581Z,12.05
2023-09-27T02:24:43.290Z,12.30
2023-09-27T02:29:40.102Z,12.77
2023-09-27T02:34:37.259Z,15.65
2023-09-27T02:39:34.324Z,16.40
2023-09-27T02:44:31.446Z,11.10
2023-09-27T02:49:28.350Z,9.68
2023-09-27T02:54:25.500Z,10.63
2023-09-27T02:59:22.382Z,9.75
2023-09-27T03:04:19.185Z,8.65
2023-09-27T03:09:16.346Z,12.20
2023-09-27T03:14:13.140Z,11.10
2023-09-27T03:19:10.633Z,13.95
2023-09-27T03:24:07.910Z,12.77
2023-09-27T03:29:05.922Z,11.85
2023-09-27T03:34:02.664Z,9.88
2023-09-27T03:38:59.391Z,13.65
2023-09-27T03:43:56.354Z,10.57
2023-09-27T03:48:53.426Z,12.38
2023-09-27T03:53:50.527Z,8.55
2023-09-27T03:58:47.409Z,13.40
2023-09-27T04:03:44.726Z,10.30
2023-09-27T04:08:41.529Z,10.57
2023-09-27T04:13:38.344Z,10.95
2023-09-27T04:18:35.367Z,14.43
2023-09-27T04:23:32.201Z,12.27
2023-09-27T04:28:28.970Z,9.52
2023-09-27T04:33:26.093Z,13.00
2023-09-27T04:38:22.967Z,14.90
2023-09-27T04:43:19.895Z,12.23
2023-09-27T04:48:16.990Z,11.70
2023-09-27T04:53:13.832Z,9.23
2023-09-27T04:58:10.576Z,9.60
2023-09-27T05:03:09.177Z,7.20
2023-09-27T05:08:06.522Z,12.27
2023-09-27T05:13:04.992Z,10.02
2023-09-27T05:18:01.895Z,8.15
2023-09-27T05:22:58.701Z,8.18
2023-09-27T05:27:56.338Z,11.45
2023-09-27T05:32:53.381Z,7.05
2023-09-27T05:37:50.649Z,10.23
2023-09-27T05:42:47.475Z,10.90
2023-09-27T05:47:44.512Z,10.48
2023-09-27T05:52:46.305Z,10.23
2023-09-27T05:57:43.192Z,9.93
2023-09-27T06:02:40.052Z,10.40
2023-09-27T06:07:36.920Z,7.32
2023-09-27T06:12:34.022Z,13.98
2023-09-27T06:17:30.864Z,16.13
2023-09-27T06:22:28.780Z,19.70
2023-09-27T06:27:25.694Z,13.60
2023-09-27T06:32:24.275Z,24.42
2023-09-27T06:37:21.293Z,18.60
2023-09-27T06:42:18.441Z,14.23
2023-09-27T06:47:16.047Z,14.88
2023-09-27T06:52:13.826Z,13.88
2023-09-27T06:57:10.546Z,22.25
2023-09-27T07:02:07.691Z,18.92
2023-09-27T07:07:04.432Z,20.00
2023-09-27T07:12:01.665Z,15.65
2023-09-27T07:17:01.463Z,21.60
2023-09-27T07:21:58.528Z,16.33
2023-09-27T07:26:55.767Z,16.65
2023-09-27T07:31:52.608Z,16.73
2023-09-27T07:36:49.600Z,14.52
2023-09-27T07:41:46.539Z,11.27
2023-09-27T07:46:43.453Z,12.52
2023-09-27T07:51:40.309Z,14.88
2023-09-27T07:56:41.768Z,17.17
2023-09-27T08:01:38.775Z,12.10
2023-09-27T08:06:36.033Z,18.60
2023-09-27T08:11:33.318Z,14.63
2023-09-27T08:16:30.887Z,18.25
2023-09-27T08:21:27.680Z,15.65
2023-09-27T08:26:24.746Z,12.38
2023-09-27T08:31:21.612Z,13.95
2023-09-27T08:36:18.437Z,11.85
2023-09-27T08:41:16.889Z,12.98
2023-09-27T08:46:13.792Z,8.88
2023-09-27T08:51:10.725Z,12.32
2023-09-27T08:56:08.224Z,8.88
2023-09-27T09:01:09.440Z,17.08
2023-09-27T09:06:12.384Z,8.68
2023-09-27T09:11:18.248Z,11.30
2023-09-27T09:16:15.514Z,7.90
2023-09-27T09:21:20.132Z,7.72
2023-09-27T09:26:31.546Z,5.22
2023-09-27T09:31:30.113Z,13.43
2023-09-27T09:36:30.464Z,8.15
2023-09-27T09:41:45.462Z,8.15
2023-09-27T09:46:44.126Z,10.30
2023-09-27T09:51:43.113Z,5.22
2023-09-27T09:56:51.227Z,12.55
2023-09-27T10:02:01.338Z,7.38
2023-09-27T10:11:57.955Z,6.63
2023-09-27T10:16:55.469Z,6.03
2023-09-27T10:22:06.646Z,6.80
2023-09-27T10:27:04.201Z,5.35
2023-09-27T10:32:02.583Z,4.85
2023-09-27T10:37:17.376Z,6.57
2023-09-27T10:42:44.327Z,8.00
2023-09-27T10:47:42.141Z,5.20
2023-09-27T10:52:40.184Z,6.18
2023-09-27T10:57:37.028Z,5.82
2023-09-27T11:02:34.435Z,7.50
2023-09-27T11:07:48.338Z,10.32
2023-09-27T11:17:42.179Z,9.73
2023-09-27T11:22:39.128Z,8.32
2023-09-27T11:27:35.933Z,7.95
2023-09-27T11:32:49.808Z,6.90
2023-09-27T11:37:46.707Z,7.50
2023-09-27T11:42:50.657Z,7.35
2023-09-27T11:47:51.885Z,7.13
2023-09-27T11:52:49.162Z,4.28
2023-09-27T11:57:46.120Z,7.10
2023-09-27T12:02:55.672Z,12.35
2023-09-27T12:07:53.922Z,6.82
2023-09-27T12:12:50.866Z,4.90
2023-09-27T12:17:47.715Z,5.00
2023-09-27T12:22:44.785Z,5.70
2023-09-27T12:27:41.789Z,6.20
2023-09-27T12:32:38.695Z,4.93
2023-09-27T12:37:37.068Z,6.20
2023-09-27T12:42:34.085Z,4.55
2023-09-27T12:47:33.240Z,5.97
2023-09-27T12:52:30.204Z,8.52
2023-09-27T12:57:26.986Z,5.03
2023-09-27T13:02:23.966Z,4.10
2023-09-27T13:07:20.860Z,3.75
2023-09-27T13:12:18.096Z,3.78
2023-09-27T13:17:15.052Z,4.80
2023-09-27T13:22:12.622Z,4.13
2023-09-27T13:27:10.130Z,7.82
2023-09-27T13:32:07.184Z,4.88
2023-09-27T13:37:04.221Z,5.20
2023-09-27T13:42:01.248Z,2.75
2023-09-27T13:46:58.329Z,6.93
2023-09-27T13:51:55.247Z,5.65
2023-09-27T13:56:52.097Z,4.13
2023-09-27T14:01:49.551Z,6.60
2023-09-27T14:06:46.928Z,6.70
2023-09-27T14:11:44.213Z,7.55
2023-09-27T14:16:42.121Z,8.15
2023-09-27T14:21:40.533Z,7.93
2023-09-27T14:26:38.063Z,3.80
2023-09-27T14:31:35.303Z,6.35
2023-09-27T14:36:33.982Z,4.30
2023-09-27T14:41:30.851Z,6.20
2023-09-27T14:46:28.001Z,6.05
2023-09-27T14:51:24.941Z,6.32
2023-09-27T14:56:23.170Z,5.85
2023-09-27T15:01:20.356Z,6.32
2023-09-27T15:06:17.283Z,10.00
2023-09-27T15:16:35.616Z,6.90
2023-09-27T15:21:32.567Z,8.15
2023-09-27T15:26:35.384Z,8.98
2023-09-27T15:31:32.664Z,6.13
2023-09-27T15:36:30.418Z,8.98
2023-09-27T15:41:38.261Z,7.00
2023-09-27T15:46:41.203Z,5.20
2023-09-27T15:51:38.966Z,5.28
2023-09-27T15:56:36.000Z,9.32
2023-09-27T16:01:32.756Z,6.85
2023-09-27T16:06:31.345Z,5.68
2023-09-27T16:11:31.403Z,5.78
2023-09-27T16:16:28.673Z,6.55
2023-09-27T16:21:25.470Z,3.92
2023-09-27T16:26:22.734Z,4.50
2023-09-27T16:31:19.590Z,5.32
2023-09-27T16:36:18.235Z,7.65
2023-09-27T16:41:19.333Z,5.40
2023-09-27T16:46:16.468Z,6.78
2023-09-27T16:51:13.245Z,6.50
2023-09-27T16:56:10.016Z,4.20
2023-09-27T17:01:07.059Z,4.45
2023-09-27T17:06:04.677Z,5.78
2023-09-27T17:11:02.258Z,6.78
2023-09-27T17:15:59.141Z,6.50
2023-09-27T17:20:55.939Z,4.22
2023-09-27T17:25:52.726Z,5.18
2023-09-27T17:30:49.755Z,5.10
2023-09-27T17:35:46.818Z,9.88
2023-09-27T17:40:43.765Z,4.60
2023-09-27T17:45:40.637Z,6.28
2023-09-27T17:50:37.817Z,6.50
2023-09-27T17:55:34.785Z,4.82
2023-09-27T18:00:32.100Z,4.78
2023-09-27T18:05:29.578Z,6.50
2023-09-27T18:10:26.374Z,4.00
2023-09-27T18:15:28.091Z,5.35
2023-09-27T18:20:25.591Z,7.05
2023-09-27T18:25:22.857Z,4.90
2023-09-27T18:30:19.679Z,5.85
2023-09-27T18:35:16.870Z,4.65
2023-09-27T18:40:13.756Z,10.55
2023-09-27T18:45:11.189Z,4.82
2023-09-27T18:50:08.261Z,6.70
2023-09-27T18:55:05.517Z,7.20
2023-09-27T19:00:02.315Z,6.00
2023-09-27T19:04:59.248Z,9.15
2023-09-27T19:09:56.242Z,4.53
2023-09-27T19:14:53.316Z,8.93
2023-09-27T19:19:50.132Z,5.85
2023-09-27T19:24:47.008Z,15.20
2023-09-27T19:29:45.565Z,9.20
2023-09-27T19:34:42.400Z,8.20
2023-09-27T19:39:39.163Z,13.35
2023-09-27T19:44:36.817Z,18.27
2023-09-27T19:49:34.355Z,12.73
2023-09-27T19:54:31.187Z,16.63
2023-09-27T19:59:28.218Z,15.30
2023-09-27T20:04:25.082Z,13.23
2023-09-27T20:09:21.902Z,18.42
2023-09-27T20:14:18.737Z,13.85
2023-09-27T20:19:15.953Z,11.27
2023-09-27T20:24:12.713Z,15.23
2023-09-27T20:29:09.475Z,18.33
2023-09-27T20:34:06.596Z,20.10
2023-09-27T20:39:03.482Z,18.42
2023-09-27T20:44:00.578Z,13.13
2023-09-27T20:48:57.688Z,23.98
2023-09-27T20:53:55.520Z,16.25
2023-09-27T20:58:52.608Z,11.55
2023-09-27T21:03:49.444Z,14.85
2023-09-27T21:08:46.244Z,16.55
2023-09-27T21:13:43.292Z,23.90
2023-09-27T21:18:40.105Z,14.52
2023-09-27T21:23:36.848Z,15.88
2023-09-27T21:28:33.685Z,18.92
2023-09-27T21:33:30.441Z,15.68
2023-09-27T21:38:28.081Z,16.77
2023-09-27T21:43:28.718Z,13.35
2023-09-27T21:48:25.572Z,20.58
2023-09-27T21:53:22.724Z,11.00
2023-09-27T21:58:19.513Z,17.02
2023-09-27T22:03:18.646Z,14.35
2023-09-27T22:08:24.612Z,12.15
2023-09-27T22:13:24.328Z,23.63
2023-09-27T22:18:21.752Z,9.77
2023-09-27T22:23:33.384Z,27.92
2023-09-27T22:28:32.482Z,14.57
2023-09-27T22:33:34.463Z,17.35
2023-09-27T22:38:51.127Z,11.30
2023-09-27T22:43:53.817Z,20.50
2023-09-27T22:48:51.774Z,20.63
2023-09-27T22:53:48.640Z,19.80
2023-09-27T22:58:45.940Z,14.20
2023-09-27T23:03:42.860Z,17.45
2023-09-27T23:08:39.729Z,12.88
2023-09-27T23:13:38.037Z,22.50
2023-09-27T23:18:35.394Z,10.75
2023-09-27T23:23:38.268Z,16.60
2023-09-27T23:28:37.884Z,24.75
2023-09-27T23:33:47.375Z,19.65
2023-09-27T23:38:57.301Z,14.90
2023-09-27T23:43:54.400Z,22.23
2023-09-27T23:48:54.118Z,14.70
2023-09-27T23:53:51.921Z,13.55
2023-09-27T23:59:43.954Z,18.55
